createdAt,value
2023-04-13T00:01:55.078Z,9.28
2023-04-13T00:04:27.831Z,7.90
2023-04-13T00:07:01.929Z,8.70
2023-04-13T00:09:34.775Z,7.62
2023-04-13T00:12:06.840Z,8.20
2023-04-13T00:14:39.400Z,8.23
2023-04-13T00:17:11.729Z,7.95
2023-04-13T00:19:45.616Z,9.43
2023-04-13T00:22:18.177Z,7.85
2023-04-13T00:24:50.245Z,8.85
2023-04-13T00:27:22.889Z,8.45
2023-04-13T00:29:56.478Z,8.43
2023-04-13T00:32:28.539Z,8.43
2023-04-13T00:35:00.644Z,8.33
2023-04-13T00:37:34.374Z,8.88
2023-04-13T00:40:08.635Z,9.25
2023-04-13T00:42:43.789Z,8.38
2023-04-13T00:45:16.808Z,7.58
2023-04-13T00:47:52.053Z,8.80
2023-04-13T00:50:24.617Z,9.03
2023-04-13T00:52:58.154Z,8.68
2023-04-13T00:55:30.278Z,8.10
2023-04-13T00:58:02.348Z,9.25
2023-04-13T01:00:34.392Z,8.10
2023-04-13T01:03:07.339Z,10.60
2023-04-13T01:05:42.451Z,8.70
2023-04-13T01:08:17.601Z,9.33
2023-04-13T01:11:06.001Z,9.03
2023-04-13T01:13:41.384Z,8.00
2023-04-13T01:16:23.440Z,8.93
2023-04-13T01:18:56.072Z,9.48
2023-04-13T01:21:30.869Z,13.32
2023-04-13T01:24:40.717Z,10.65
2023-04-13T01:27:20.308Z,8.40
2023-04-13T01:29:52.676Z,9.08
2023-04-13T01:32:25.090Z,9.18
2023-04-13T01:34:57.314Z,8.05
2023-04-13T01:37:30.049Z,8.48
2023-04-13T01:40:02.267Z,8.75
2023-04-13T01:42:35.104Z,7.78
2023-04-13T01:45:10.653Z,7.55
2023-04-13T01:47:45.508Z,8.10
2023-04-13T01:50:26.018Z,9.40
2023-04-13T01:53:04.352Z,8.45
2023-04-13T01:55:38.465Z,8.28
2023-04-13T01:58:13.306Z,8.08
2023-04-13T02:00:47.883Z,8.33
2023-04-13T02:03:21.918Z,8.93
2023-04-13T02:05:54.575Z,8.53
2023-04-13T02:08:26.907Z,9.05
2023-04-13T02:10:59.002Z,8.28
2023-04-13T02:13:31.865Z,7.65
2023-04-13T02:16:07.373Z,8.85
2023-04-13T02:18:39.588Z,8.38
2023-04-13T02:21:12.288Z,8.50
2023-04-13T02:23:44.868Z,8.45
2023-04-13T02:26:18.277Z,8.33
2023-04-13T02:28:52.630Z,8.30
2023-04-13T02:31:24.676Z,8.23
2023-04-13T02:33:57.023Z,7.83
2023-04-13T02:36:29.633Z,8.00
2023-04-13T02:39:06.473Z,8.08
2023-04-13T02:41:40.332Z,8.98
2023-04-13T02:44:13.155Z,8.45
2023-04-13T02:49:19.786Z,7.87
2023-04-13T02:51:53.412Z,8.38
2023-04-13T02:54:27.271Z,8.73
2023-04-13T02:57:01.886Z,7.87
2023-04-13T02:59:35.568Z,8.53
2023-04-13T03:02:10.065Z,9.28
2023-04-13T03:04:42.816Z,7.95
2023-04-13T03:07:17.302Z,8.10
2023-04-13T03:09:52.606Z,8.93
2023-04-13T03:12:26.700Z,9.23
2023-04-13T03:15:00.445Z,8.28
2023-04-13T03:20:06.091Z,8.10
2023-04-13T03:22:39.970Z,7.47
2023-04-13T03:25:12.755Z,8.63
2023-04-13T03:27:44.994Z,8.60
2023-04-13T03:30:18.901Z,8.28
2023-04-13T03:32:58.390Z,7.83
2023-04-13T03:35:32.317Z,8.47
2023-04-13T03:38:05.721Z,9.63
2023-04-13T03:40:39.552Z,9.50
2023-04-13T03:43:12.065Z,8.55
2023-04-13T03:45:45.971Z,9.05
2023-04-13T03:48:19.735Z,8.40
2023-04-13T03:50:51.951Z,8.33
2023-04-13T03:53:25.734Z,9.28
2023-04-13T03:55:59.948Z,8.90
2023-04-13T03:58:32.181Z,8.98
2023-04-13T04:01:04.247Z,8.48
2023-04-13T04:03:38.683Z,9.63
2023-04-13T04:06:12.963Z,8.88
2023-04-13T04:08:48.410Z,9.43
2023-04-13T04:11:33.961Z,8.60
2023-04-13T04:14:07.205Z,8.03
2023-04-13T04:16:39.800Z,8.43
2023-04-13T04:19:13.972Z,9.20
2023-04-13T04:21:47.268Z,9.15
2023-04-13T04:24:23.826Z,8.48
2023-04-13T04:26:59.030Z,8.43
2023-04-13T04:29:37.458Z,7.50
2023-04-13T04:32:22.125Z,8.50
2023-04-13T04:34:55.016Z,8.50
2023-04-13T04:37:28.672Z,8.40
2023-04-13T04:40:13.291Z,8.53
2023-04-13T04:42:46.219Z,9.50
2023-04-13T04:45:20.925Z,8.20
2023-04-13T04:47:56.203Z,8.68
2023-04-13T04:50:30.286Z,8.03
2023-04-13T04:53:07.360Z,7.60
2023-04-13T04:55:40.980Z,9.95
2023-04-13T04:58:14.825Z,8.23
2023-04-13T05:00:49.919Z,8.50
2023-04-13T05:03:23.088Z,8.58
2023-04-13T05:08:29.760Z,8.05
2023-04-13T05:11:01.972Z,8.05
2023-04-13T05:13:34.653Z,7.33
2023-04-13T05:16:20.235Z,7.37
2023-04-13T05:18:53.699Z,7.42
2023-04-13T05:21:34.027Z,7.78
2023-04-13T05:24:07.289Z,7.37
2023-04-13T05:26:40.446Z,7.67
2023-04-13T05:29:13.409Z,7.92
2023-04-13T05:31:47.306Z,7.20
2023-04-13T05:34:19.750Z,7.50
2023-04-13T05:36:53.836Z,8.03
2023-04-13T05:39:27.246Z,7.28
2023-04-13T05:41:59.379Z,7.95
2023-04-13T05:44:32.166Z,7.12
2023-04-13T05:47:04.335Z,8.00
2023-04-13T05:49:38.291Z,7.05
2023-04-13T05:52:10.719Z,7.53
2023-04-13T05:54:50.388Z,8.63
2023-04-13T05:57:24.235Z,8.68
2023-04-13T05:59:57.352Z,7.42
2023-04-13T06:02:32.338Z,6.83
2023-04-13T06:05:05.483Z,7.62
2023-04-13T06:07:39.101Z,7.17
2023-04-13T06:10:12.480Z,8.48
2023-04-13T06:12:45.054Z,6.87
2023-04-13T06:15:18.517Z,7.17
2023-04-13T06:20:26.857Z,7.90
2023-04-13T06:23:01.142Z,7.15
2023-04-13T06:25:34.778Z,7.67
2023-04-13T06:28:08.020Z,7.40
2023-04-13T06:30:42.110Z,6.90
2023-04-13T06:33:16.096Z,6.53
2023-04-13T06:35:48.635Z,7.42
2023-04-13T06:38:20.896Z,6.40
2023-04-13T06:41:04.784Z,7.20
2023-04-13T06:43:38.754Z,8.10
2023-04-13T06:46:19.872Z,6.37
2023-04-13T06:48:54.719Z,6.78
2023-04-13T06:51:31.006Z,7.08
2023-04-13T06:54:04.505Z,7.55
2023-04-13T06:56:36.729Z,7.00
2023-04-13T06:59:09.317Z,7.22
2023-04-13T07:01:41.792Z,8.20
2023-04-13T07:04:14.132Z,7.62
2023-04-13T07:06:48.307Z,8.20
2023-04-13T07:09:20.726Z,7.25
2023-04-13T07:11:53.027Z,7.55
2023-04-13T07:14:25.643Z,7.42
2023-04-13T07:16:57.988Z,8.38
2023-04-13T07:19:32.373Z,7.15
2023-04-13T07:22:05.064Z,6.80
2023-04-13T07:24:38.232Z,7.10
2023-04-13T07:27:12.344Z,6.75
2023-04-13T07:29:44.593Z,6.08
2023-04-13T07:32:20.876Z,7.57
2023-04-13T07:34:52.088Z,6.80
2023-04-13T07:37:24.420Z,7.03
2023-04-13T07:39:56.816Z,7.22
2023-04-13T07:42:29.183Z,7.12
2023-04-13T07:45:02.914Z,7.35
2023-04-13T07:47:35.470Z,5.80
2023-04-13T07:50:10.595Z,6.90
2023-04-13T07:52:43.429Z,5.75
2023-04-13T07:55:15.703Z,5.83
2023-04-13T07:57:49.667Z,4.65
2023-04-13T08:00:23.328Z,4.33
2023-04-13T08:02:58.773Z,5.05
2023-04-13T08:05:32.240Z,4.50
2023-04-13T08:08:04.989Z,4.75
2023-04-13T08:10:37.472Z,3.95
2023-04-13T08:13:09.970Z,4.53
2023-04-13T08:15:42.391Z,4.67
2023-04-13T08:18:15.051Z,4.47
2023-04-13T08:20:49.413Z,3.72
2023-04-13T08:23:23.295Z,4.65
2023-04-13T08:25:56.246Z,4.43
2023-04-13T08:28:30.356Z,4.65
2023-04-13T08:31:03.325Z,5.40
2023-04-13T08:33:36.261Z,4.15
2023-04-13T08:36:10.267Z,4.25
2023-04-13T08:38:43.368Z,3.65
2023-04-13T08:41:18.635Z,3.05
2023-04-13T08:43:54.906Z,3.62
2023-04-13T08:46:28.964Z,3.95
2023-04-13T08:49:04.236Z,3.58
2023-04-13T08:51:38.557Z,3.75
2023-04-13T08:54:12.168Z,4.12
2023-04-13T08:56:47.324Z,3.92
2023-04-13T08:59:23.666Z,8.05
2023-04-13T09:04:32.805Z,3.37
2023-04-13T09:07:08.192Z,3.80
2023-04-13T09:09:46.197Z,2.80
2023-04-13T09:12:18.529Z,2.85
2023-04-13T09:14:51.376Z,3.90
2023-04-13T09:17:35.619Z,2.67
2023-04-13T09:20:22.084Z,2.25
2023-04-13T09:22:54.669Z,2.80
2023-04-13T09:25:28.696Z,2.95
2023-04-13T09:28:01.230Z,3.15
2023-04-13T09:30:33.607Z,2.40
2023-04-13T09:33:10.759Z,2.98
2023-04-13T09:35:43.423Z,3.77
2023-04-13T09:38:17.456Z,3.70
2023-04-13T09:40:50.441Z,3.10
2023-04-13T09:43:22.941Z,3.77
2023-04-13T09:45:55.905Z,3.17
2023-04-13T09:48:28.914Z,3.87
2023-04-13T09:51:07.225Z,3.85
2023-04-13T09:53:46.829Z,3.27
2023-04-13T09:56:20.640Z,2.77
2023-04-13T10:01:25.711Z,2.50
2023-04-13T10:03:58.498Z,2.27
2023-04-13T10:06:32.269Z,2.90
2023-04-13T10:09:04.336Z,3.05
2023-04-13T10:11:39.874Z,2.70
2023-04-13T10:14:15.104Z,3.47
2023-04-13T10:16:50.595Z,6.47
2023-04-13T10:19:28.358Z,2.62
2023-04-13T10:22:01.557Z,4.60
2023-04-13T10:24:34.668Z,2.13
2023-04-13T10:27:17.994Z,3.00
2023-04-13T10:29:50.541Z,2.98
2023-04-13T10:32:25.127Z,3.10
2023-04-13T10:34:58.284Z,2.83
2023-04-13T10:37:30.535Z,3.58
2023-04-13T10:40:12.496Z,2.98
2023-04-13T10:42:53.099Z,3.40
2023-04-13T10:45:26.566Z,3.42
2023-04-13T10:50:31.269Z,2.42
2023-04-13T10:53:05.482Z,2.87
2023-04-13T10:55:37.747Z,2.52
2023-04-13T10:58:18.535Z,2.90
2023-04-13T11:00:52.370Z,3.55
2023-04-13T11:03:28.330Z,2.70
2023-04-13T11:06:02.887Z,2.70
2023-04-13T11:08:37.462Z,2.40
2023-04-13T11:11:14.925Z,2.33
2023-04-13T11:13:47.461Z,2.97
2023-04-13T11:16:19.691Z,2.70
2023-04-13T11:19:02.846Z,3.27
2023-04-13T11:21:35.807Z,3.47
2023-04-13T11:24:08.590Z,2.42
2023-04-13T11:26:42.980Z,2.60
2023-04-13T11:29:25.167Z,2.02
2023-04-13T11:31:57.782Z,2.80
2023-04-13T11:34:30.125Z,2.42
2023-04-13T11:37:07.385Z,2.58
2023-04-13T11:39:42.488Z,3.10
2023-04-13T11:42:14.993Z,3.08
2023-04-13T11:44:47.464Z,4.62
2023-04-13T11:47:20.102Z,2.42
2023-04-13T11:49:52.811Z,4.00
2023-04-13T11:52:26.283Z,2.67
2023-04-13T11:55:07.704Z,4.92
2023-04-13T11:57:37.176Z,3.58
2023-04-13T12:00:22.518Z,3.55
2023-04-13T12:05:34.440Z,3.87
2023-04-13T12:08:08.692Z,3.35
2023-04-13T12:10:49.355Z,3.98
2023-04-13T12:18:28.333Z,4.35
2023-04-13T12:20:58.704Z,3.95
2023-04-13T12:23:31.056Z,4.40
2023-04-13T12:26:33.156Z,4.45
2023-04-13T12:28:43.428Z,4.60
2023-04-13T12:31:17.179Z,3.75
2023-04-13T12:33:49.462Z,3.70
2023-04-13T12:36:22.345Z,3.33
2023-04-13T12:38:54.403Z,3.40
2023-04-13T12:41:26.776Z,3.90
2023-04-13T12:43:58.623Z,4.05
2023-04-13T12:46:31.039Z,3.58
2023-04-13T12:49:03.707Z,2.70
2023-04-13T12:51:36.311Z,2.60
2023-04-13T12:54:10.252Z,2.58
2023-04-13T12:56:43.212Z,3.15
2023-04-13T12:59:15.444Z,3.02
2023-04-13T13:01:47.762Z,3.47
2023-04-13T13:04:19.899Z,3.10
2023-04-13T13:06:52.596Z,4.03
2023-04-13T13:09:25.204Z,2.40
2023-04-13T13:11:58.301Z,2.87
2023-04-13T13:14:30.513Z,2.80
2023-04-13T13:17:04.091Z,2.90
2023-04-13T13:19:36.683Z,2.77
2023-04-13T13:22:09.324Z,2.98
2023-04-13T13:24:41.753Z,3.25
2023-04-13T13:27:48.696Z,4.80
2023-04-13T13:29:48.032Z,1.87
2023-04-13T13:32:20.440Z,2.45
2023-04-13T13:34:52.692Z,2.80
2023-04-13T13:37:24.922Z,2.65
2023-04-13T13:39:56.783Z,2.22
2023-04-13T13:42:37.487Z,2.62
2023-04-13T13:45:02.977Z,3.77
2023-04-13T13:47:35.340Z,2.52
2023-04-13T13:50:08.932Z,4.53
2023-04-13T13:52:55.327Z,2.72
2023-04-13T13:55:18.800Z,2.55
2023-04-13T13:57:50.901Z,2.35
2023-04-13T14:00:23.856Z,2.62
2023-04-13T14:02:56.190Z,2.77
2023-04-13T14:05:28.426Z,2.37
2023-04-13T14:08:01.715Z,2.60
2023-04-13T14:10:34.461Z,2.20
2023-04-13T14:13:06.625Z,2.10
2023-04-13T14:15:38.755Z,1.75
2023-04-13T14:18:11.749Z,2.37
2023-04-13T14:20:44.048Z,1.85
2023-04-13T14:23:16.472Z,2.17
2023-04-13T14:25:48.390Z,2.00
2023-04-13T14:28:21.442Z,1.75
2023-04-13T14:30:53.739Z,2.55
2023-04-13T14:33:26.566Z,1.80
2023-04-13T14:35:58.739Z,2.00
2023-04-13T14:38:31.297Z,1.55
2023-04-13T14:41:03.669Z,2.10
2023-04-13T14:43:35.839Z,1.60
2023-04-13T14:46:09.057Z,1.67
2023-04-13T14:48:41.505Z,2.40
2023-04-13T14:51:19.596Z,3.20
2023-04-13T14:53:54.954Z,2.05
2023-04-13T14:56:27.389Z,3.00
2023-04-13T14:58:59.980Z,2.67
2023-04-13T15:01:32.313Z,3.40
2023-04-13T15:04:04.883Z,1.87
2023-04-13T15:06:38.613Z,2.20
2023-04-13T15:09:12.953Z,2.73
2023-04-13T15:14:16.964Z,2.67
2023-04-13T15:16:49.133Z,2.60
2023-04-13T15:19:21.706Z,2.27
2023-04-13T15:21:54.381Z,3.83
2023-04-13T15:24:27.070Z,2.02
2023-04-13T15:26:59.922Z,2.05
2023-04-13T15:29:32.370Z,2.05
2023-04-13T15:32:04.869Z,1.90
2023-04-13T15:34:37.618Z,2.05
2023-04-13T15:37:09.725Z,1.70
2023-04-13T15:39:41.816Z,1.85
2023-04-13T15:42:14.757Z,2.67
2023-04-13T15:44:47.073Z,2.70
2023-04-13T15:47:19.120Z,2.10
2023-04-13T15:49:51.325Z,2.15
2023-04-13T15:52:23.854Z,1.37
2023-04-13T15:54:56.269Z,1.60
2023-04-13T15:57:28.570Z,1.65
2023-04-13T16:00:01.220Z,1.90
2023-04-13T16:02:35.412Z,3.25
2023-04-13T16:05:08.085Z,3.10
2023-04-13T16:07:40.509Z,2.30
2023-04-13T16:10:19.506Z,2.58
2023-04-13T16:12:53.645Z,2.40
2023-04-13T16:15:26.547Z,2.05
2023-04-13T16:17:58.801Z,2.10
2023-04-13T16:20:31.055Z,1.50
2023-04-13T16:23:05.170Z,1.92
2023-04-13T16:25:37.926Z,2.20
2023-04-13T16:28:10.805Z,1.50
2023-04-13T16:30:43.176Z,2.00
2023-04-13T16:33:15.589Z,2.12
2023-04-13T16:35:47.598Z,1.80
2023-04-13T16:38:19.812Z,2.35
2023-04-13T16:40:51.983Z,2.37
2023-04-13T16:43:24.266Z,2.33
2023-04-13T16:45:56.596Z,2.60
2023-04-13T16:48:30.135Z,2.35
2023-04-13T16:51:03.433Z,2.50
2023-04-13T16:53:35.781Z,1.98
2023-04-13T16:56:08.218Z,1.72
2023-04-13T16:58:40.416Z,1.98
2023-04-13T17:01:12.644Z,1.57
2023-04-13T17:03:44.913Z,3.25
2023-04-13T17:06:16.867Z,2.08
2023-04-13T17:08:49.615Z,1.77
2023-04-13T17:11:22.026Z,1.82
2023-04-13T17:13:54.220Z,2.00
2023-04-13T17:16:28.188Z,1.90
2023-04-13T17:19:00.667Z,2.03
2023-04-13T17:21:33.236Z,1.80
2023-04-13T17:24:05.800Z,2.20
2023-04-13T17:26:39.133Z,1.75
2023-04-13T17:29:11.629Z,1.45
2023-04-13T17:31:44.675Z,1.77
2023-04-13T17:34:17.177Z,1.90
2023-04-13T17:36:49.410Z,1.65
2023-04-13T17:39:21.616Z,1.50
2023-04-13T17:41:53.635Z,1.80
2023-04-13T17:44:25.845Z,1.87
2023-04-13T17:46:57.793Z,1.60
2023-04-13T17:49:30.143Z,1.75
2023-04-13T17:52:02.460Z,2.17
2023-04-13T17:54:35.181Z,1.52
2023-04-13T17:57:07.922Z,2.25
2023-04-13T17:59:41.954Z,1.65
2023-04-13T18:02:13.971Z,1.77
2023-04-13T18:04:46.735Z,1.60
2023-04-13T18:07:20.564Z,2.27
2023-04-13T18:09:52.626Z,1.90
2023-04-13T18:12:24.595Z,1.70
2023-04-13T18:14:58.809Z,1.80
2023-04-13T18:17:32.635Z,1.30
2023-04-13T18:20:04.941Z,1.57
2023-04-13T18:22:37.400Z,1.52
2023-04-13T18:25:09.958Z,1.17
2023-04-13T18:27:42.924Z,1.15
2023-04-13T18:30:17.143Z,1.30
2023-04-13T18:32:53.103Z,1.47
2023-04-13T18:35:26.139Z,1.60
2023-04-13T18:37:58.867Z,1.75
2023-04-13T18:40:31.249Z,1.35
2023-04-13T18:43:03.450Z,1.50
2023-04-13T18:45:35.879Z,1.27
2023-04-13T18:48:10.145Z,1.60
2023-04-13T18:50:42.333Z,1.40
2023-04-13T18:53:14.915Z,1.87
2023-04-13T18:55:51.294Z,1.50
2023-04-13T18:58:23.422Z,1.15
2023-04-13T19:00:56.091Z,0.93
2023-04-13T19:03:28.912Z,1.37
2023-04-13T19:06:01.206Z,0.93
2023-04-13T19:08:33.716Z,1.30
2023-04-13T19:11:06.392Z,1.20
2023-04-13T19:13:38.663Z,1.30
2023-04-13T19:16:11.429Z,1.17
2023-04-13T19:18:43.745Z,1.40
2023-04-13T19:21:15.909Z,1.17
2023-04-13T19:23:48.692Z,1.00
2023-04-13T19:26:20.789Z,1.07
2023-04-13T19:28:56.153Z,1.50
2023-04-13T19:31:28.742Z,1.15
2023-04-13T19:34:01.478Z,1.40
2023-04-13T19:36:36.062Z,1.10
2023-04-13T19:39:10.136Z,1.20
2023-04-13T19:41:43.014Z,1.30
2023-04-13T19:44:16.971Z,1.10
2023-04-13T19:46:49.152Z,1.27
2023-04-13T19:49:21.392Z,2.90
2023-04-13T19:51:53.473Z,1.40
2023-04-13T19:54:25.519Z,0.88
2023-04-13T19:56:57.496Z,1.40
2023-04-13T19:59:29.444Z,1.30
2023-04-13T20:02:01.621Z,1.12
2023-04-13T20:04:35.047Z,1.05
2023-04-13T20:07:07.232Z,1.10
2023-04-13T20:09:39.413Z,1.82
2023-04-13T20:12:12.298Z,1.40
2023-04-13T20:14:45.863Z,1.62
2023-04-13T20:17:17.715Z,1.70
2023-04-13T20:19:50.048Z,1.00
2023-04-13T20:22:22.626Z,1.12
2023-04-13T20:24:54.689Z,1.70
2023-04-13T20:27:27.492Z,1.90
2023-04-13T20:29:59.949Z,1.10
2023-04-13T20:32:34.199Z,1.60
2023-04-13T20:35:06.790Z,1.10
2023-04-13T20:37:38.798Z,1.40
2023-04-13T20:40:10.850Z,1.98
2023-04-13T20:42:44.356Z,1.92
2023-04-13T20:45:17.740Z,1.20
2023-04-13T20:47:51.080Z,1.20
2023-04-13T20:50:25.653Z,1.72
2023-04-13T20:52:57.010Z,1.37
2023-04-13T20:55:29.118Z,1.20
2023-04-13T20:58:01.814Z,1.57
2023-04-13T21:00:34.713Z,1.75
2023-04-13T21:03:08.747Z,2.33
2023-04-13T21:05:41.410Z,1.20
2023-04-13T21:08:13.336Z,1.72
2023-04-13T21:10:47.132Z,1.67
2023-04-13T21:13:19.480Z,2.17
2023-04-13T21:15:51.932Z,1.70
2023-04-13T21:18:24.011Z,1.25
2023-04-13T21:20:56.348Z,1.32
2023-04-13T21:23:28.687Z,1.95
2023-04-13T21:26:00.832Z,1.20
2023-04-13T21:28:32.938Z,1.47
2023-04-13T21:31:04.887Z,1.55
2023-04-13T21:33:36.833Z,1.37
2023-04-13T21:38:46.509Z,1.47
2023-04-13T21:41:20.084Z,1.25
2023-04-13T21:43:52.274Z,1.70
2023-04-13T21:46:25.270Z,0.90
2023-04-13T21:48:57.588Z,1.22
2023-04-13T21:51:29.631Z,1.50
2023-04-13T21:54:01.651Z,1.12
2023-04-13T21:56:35.227Z,1.30
2023-04-13T21:59:07.699Z,1.10
2023-04-13T22:01:39.926Z,1.15
2023-04-13T22:04:12.939Z,1.30
2023-04-13T22:06:45.329Z,0.90
2023-04-13T22:09:17.647Z,1.17
2023-04-13T22:11:49.707Z,1.10
2023-04-13T22:14:23.403Z,0.90
2023-04-13T22:16:55.412Z,1.30
2023-04-13T22:19:27.642Z,1.27
2023-04-13T22:21:59.800Z,1.12
2023-04-13T22:24:31.843Z,1.20
2023-04-13T22:27:06.912Z,1.20
2023-04-13T22:29:38.811Z,1.95
2023-04-13T22:32:11.114Z,1.47
2023-04-13T22:34:43.249Z,1.05
2023-04-13T22:37:17.488Z,0.95
2023-04-13T22:39:49.716Z,1.45
2023-04-13T22:42:22.134Z,1.37
2023-04-13T22:44:54.221Z,1.20
2023-04-13T22:47:26.486Z,1.10
2023-04-13T22:50:00.821Z,1.10
2023-04-13T22:52:32.867Z,1.20
2023-04-13T22:55:05.049Z,1.50
2023-04-13T22:57:37.084Z,1.05
2023-04-13T23:00:09.896Z,0.98
2023-04-13T23:02:42.495Z,1.20
2023-04-13T23:05:15.000Z,1.07
2023-04-13T23:07:46.942Z,0.98
2023-04-13T23:10:19.427Z,1.10
2023-04-13T23:12:52.467Z,1.02
2023-04-13T23:15:24.572Z,2.27
2023-04-13T23:18:01.139Z,1.30
2023-04-13T23:20:33.711Z,1.20
2023-04-13T23:23:05.744Z,1.12
2023-04-13T23:25:38.076Z,1.45
2023-04-13T23:28:10.035Z,1.40
2023-04-13T23:30:42.202Z,1.50
2023-04-13T23:33:14.309Z,1.32
2023-04-13T23:35:53.866Z,1.35
2023-04-13T23:38:25.961Z,1.67
2023-04-13T23:40:58.230Z,1.30
2023-04-13T23:43:30.215Z,1.40
2023-04-13T23:46:02.407Z,1.70
2023-04-13T23:48:34.696Z,1.35
2023-04-13T23:51:07.092Z,1.12
2023-04-13T23:53:39.208Z,1.12
2023-04-13T23:56:11.381Z,1.22
2023-04-13T23:58:43.390Z,1.27
